Terminal Aerodrome Forecast
Issued by NWS

Home | Current Version | Previous Version | Text Only | Print | Product List | Glossary On
Versions: 1 2 3 4 5 6 7 8 9 10 11 12
000
FTUS44 KTSA 282300
TAFMLC
TAF
KMLC 282320Z 2900/2924 14005KT P6SM FEW090 SCT250
     FM290100 15007KT P6SM BKN250
     FM290600 16008KT P6SM SCT050 OVC250
     FM291200 18008KT P6SM SCT050 OVC250 PROB30 2912/2918 4SM -TSRA
      BR OVC040CB
     FM291800 20007KT P6SM BKN250 PROB30 2918/2924 P6SM -TSRA
      BKN050CB=

USA.gov is the U.S. government's official web portal to all federal, state and local government web resources and services.